Hurlburt Field Mary Esther US
ICAO: KHRT
IATA: HRT
Category: Medium
Scheduled Services: No

Elevation: 38 ft
TransAlt. 18000 ft.

Airport Communications:
EGLIN APP:37.915
EGLIN APP:133
ATIS:36.067
EGLIN DEP:132.1
GND:123.975
PMSV METRO:39.075
COMD POST:140.4
PTD:37.22
TWR:126.5

KHRT Zoom In..

If you have problems with the map follow the link
https://www.worldairports.se/pages/airport.php?
ICAO=KHRT

Runways:

(A) RW 18 length 9600 ft width 150 ft
---- / hdg 178

(B) RW 36 length 9600 ft width 150 ft
ILS 111.30 / hdg 358

Location; KHRT
Day. 25 / Time. 06.56 Zulu
* Altimeter: 30.09
* Temperature: 08° c. 46.4°f.
* Wind from: 350° Speed 11 kn.
Dewpoint: 04° c.
Visibility: 10 Statute Miles.
Clouds: Clear (automated report).

KHRT 250656Z 35011KT 10SM CLR 08/04 A3009 RMK AO2A SLP191 T00830037 $


Wind From 350°
Speed 11 kn.

 
 
jpsmedia worldairports.se 2020   terms of use